Henton, Illinois
Current Conditions -  °F | °C
As of 11:35 AM on Sunday 23 Nov 2014 (Local Time) from K1H2 Reporting Station
Overcast Overcast  
Wind Chill: 51°   Ceiling: 1800
Heat Index: 51°   Visibility: NA
Dew Point: 46°   Wind: 15mph
Humidity: 81%   Direction: 140°SE
Pressure: 29.63"   Gusts: NA
Location:  39.3979°N, 88.811°W
Report Text: K1H2 231735Z AUTO 14013KT OVC018 11/08 A2963 RMK AO2 T01070075 PWINO
Loading
Personal Weather Stations






























Interactive Weather Map New forecast layout! Learn more

10-Day Weather Forecast

Advertisements
Track Severe Weather on mobile